Time;durP1;ratioP1;P1;durP2;ratioP2;P2;SDS_P1;SDS_P2;PMS_P1;PMS_P2;Temp;Humidity;BMP_temperature;BMP_pressure;BME280_temperature;BME280_humidity;BME280_pressure;Samples;Min_cycle;Max_cycle;Signal;HPM_P1;HPM_P2
2021/01/14 00:02:05;;;;;;;1.83;1.73;;;7.30;49.50;;;;;;5014674;28;20462;-66
2021/01/14 00:04:30;;;;;;;2.17;2.07;;;7.20;49.20;;;;;;5046300;28;21131;-66
2021/01/14 00:06:58;;;;;;;1.80;1.70;;;6.90;49.40;;;;;;5014629;28;20447;-66
2021/01/14 00:09:24;;;;;;;1.83;1.60;;;7.00;49.90;;;;;;5014477;28;20185;-66
2021/01/14 00:11:49;;;;;;;1.60;1.50;;;7.40;48.70;;;;;;5014487;28;20751;-66
2021/01/14 00:14:15;;;;;;;1.60;1.60;;;7.20;47.40;;;;;;5014501;28;20411;-66
2021/01/14 00:16:41;;;;;;;1.70;1.60;;;7.10;47.60;;;;;;5014370;28;20242;-66
2021/01/14 00:19:06;;;;;;;1.90;1.80;;;7.10;48.40;;;;;;5014074;28;20204;-66
2021/01/14 00:21:39;;;;;;;2.10;2.00;;;6.80;48.80;;;;;;5014361;28;20176;-66
2021/01/14 00:24:05;;;;;;;2.17;2.07;;;7.10;48.50;;;;;;5014361;28;20288;-66
2021/01/14 00:26:31;;;;;;;2.27;2.17;;;6.90;48.40;;;;;;5014133;28;20457;-66
2021/01/14 00:28:57;;;;;;;2.20;2.10;;;6.90;49.00;;;;;;5014039;28;20419;-66
2021/01/14 00:31:22;;;;;;;1.87;1.77;;;7.10;48.70;;;;;;5014270;28;20407;-66
2021/01/14 00:33:47;;;;;;;1.77;1.67;;;6.80;49.10;;;;;;5014016;28;20181;-66
2021/01/14 00:36:13;;;;;;;2.00;1.90;;;6.80;49.00;;;;;;5013997;28;20196;-66
2021/01/14 00:38:38;;;;;;;1.80;1.80;;;6.90;48.40;;;;;;5013763;28;20613;-66
2021/01/14 00:41:04;;;;;;;2.07;1.97;;;6.90;48.70;;;;;;5013806;28;20260;-66
2021/01/14 00:43:31;;;;;;;1.73;1.63;;;7.10;48.10;;;;;;5013832;28;20181;-66
2021/01/14 00:45:57;;;;;;;2.10;2.00;;;6.80;48.10;;;;;;5013796;28;20701;-66
2021/01/14 00:48:22;;;;;;;2.10;2.00;;;6.90;48.70;;;;;;5013667;28;20425;-66
2021/01/14 00:50:49;;;;;;;3.27;2.20;;;6.80;47.90;;;;;;5013171;28;20255;-66
2021/01/14 00:53:15;;;;;;;2.40;2.30;;;6.60;49.60;;;;;;5013775;28;20165;-66
2021/01/14 00:55:40;;;;;;;2.40;2.30;;;6.90;48.70;;;;;;5013620;28;20518;-66
2021/01/14 00:58:06;;;;;;;2.27;2.17;;;7.00;47.90;;;;;;5013371;28;20574;-66
2021/01/14 01:00:31;;;;;;;2.20;2.10;;;7.00;47.40;;;;;;5013541;28;20215;-66
2021/01/14 01:02:57;;;;;;;3.07;2.90;;;7.00;47.40;;;;;;5013559;28;20184;-66
2021/01/14 01:05:22;;;;;;;3.60;3.40;;;7.00;46.90;;;;;;5013377;28;20205;-66
2021/01/14 01:07:56;;;;;;;3.27;3.07;;;7.10;46.20;;;;;;5013443;28;20668;-66
2021/01/14 01:10:22;;;;;;;3.47;2.67;;;7.20;46.20;;;;;;5013773;28;20175;-66
2021/01/14 01:12:55;;;;;;;2.90;2.70;;;7.20;46.20;;;;;;5013363;28;20416;-66
2021/01/14 01:15:21;;;;;;;2.90;2.70;;;6.90;46.30;;;;;;5013389;28;20444;-66
2021/01/14 01:17:46;;;;;;;2.87;2.67;;;7.00;46.20;;;;;;5013496;28;20506;-66
2021/01/14 01:20:12;;;;;;;2.63;2.43;;;7.10;45.20;;;;;;5013293;28;20739;-66
2021/01/14 01:22:38;;;;;;;2.87;2.67;;;7.10;45.30;;;;;;5013339;28;20662;-66
2021/01/14 01:25:03;;;;;;;3.10;2.90;;;6.80;46.50;;;;;;5012992;28;20512;-66
2021/01/14 01:27:29;;;;;;;4.77;3.40;;;6.70;46.90;;;;;;5012918;28;20265;-66
2021/01/14 01:29:55;;;;;;;3.20;3.00;;;6.80;46.80;;;;;;5013233;28;20411;-66
2021/01/14 01:32:20;;;;;;;2.73;2.63;;;6.80;47.00;;;;;;5013122;28;20794;-66
2021/01/14 01:34:46;;;;;;;3.67;3.47;;;6.70;46.70;;;;;;5012962;28;20193;-66
2021/01/14 01:37:11;;;;;;;3.20;3.00;;;6.70;47.30;;;;;;5012736;28;20209;-67
2021/01/14 01:39:37;;;;;;;3.63;3.43;;;6.90;46.50;;;;;;5012877;28;20068;-67
2021/01/14 01:42:04;;;;;;;3.10;2.90;;;7.00;45.80;;;;;;5013031;28;20176;-66
2021/01/14 01:44:30;;;;;;;3.07;2.80;;;7.00;46.70;;;;;;5012922;28;20192;-66
2021/01/14 01:47:01;;;;;;;2.97;2.77;;;7.00;45.30;;;;;;5012775;28;20408;-66
2021/01/14 01:49:26;;;;;;;3.30;3.00;;;7.00;45.90;;;;;;5012660;28;20180;-66
2021/01/14 01:51:52;;;;;;;3.37;3.17;;;6.90;45.70;;;;;;5012589;28;20404;-66
2021/01/14 01:54:19;;;;;;;2.87;2.73;;;6.90;45.60;;;;;;5012587;28;20223;-67
2021/01/14 01:56:45;;;;;;;3.83;3.40;;;7.00;45.10;;;;;;5012613;28;20508;-66
2021/01/14 01:59:12;;;;;;;3.60;3.40;;;6.90;45.00;;;;;;5012269;28;20547;-66
2021/01/14 02:01:38;;;;;;;2.63;2.50;;;6.50;46.10;;;;;;5011595;28;20281;-66
2021/01/14 02:04:08;;;;;;;3.23;3.03;;;6.70;45.60;;;;;;5012322;28;20446;-66
2021/01/14 02:06:43;;;;;;;3.40;3.20;;;6.90;45.20;;;;;;5012211;28;20690;-66
2021/01/14 02:09:10;;;;;;;2.63;2.53;;;6.70;44.80;;;;;;5012147;28;20444;-66
2021/01/14 02:11:41;;;;;;;3.10;2.90;;;6.60;45.20;;;;;;5012333;28;20439;-66
2021/01/14 02:14:24;;;;;;;2.90;2.70;;;6.60;45.90;;;;;;5012298;28;20403;-66
2021/01/14 02:16:51;;;;;;;3.03;2.83;;;6.60;45.40;;;;;;5012227;28;20435;-66
2021/01/14 02:19:32;;;;;;;3.20;3.00;;;6.70;45.30;;;;;;5011858;28;20538;-66
2021/01/14 02:22:15;;;;;;;2.73;2.53;;;6.70;44.80;;;;;;5012338;28;20795;-66
2021/01/14 02:24:49;;;;;;;2.60;2.50;;;6.50;44.70;;;;;;5011934;28;20949;-65
2021/01/14 02:27:16;;;;;;;2.80;2.60;;;6.50;45.30;;;;;;5011880;28;20408;-66
2021/01/14 02:29:42;;;;;;;2.83;2.63;;;6.60;45.30;;;;;;5011809;28;20907;-66
2021/01/14 02:32:16;;;;;;;2.60;2.47;;;6.50;44.20;;;;;;5011932;28;20453;-66
2021/01/14 02:34:41;;;;;;;2.87;2.70;;;6.40;45.20;;;;;;5011970;28;20427;-65
2021/01/14 02:37:07;;;;;;;3.20;3.00;;;6.40;44.90;;;;;;5011694;28;20500;-66
2021/01/14 02:39:34;;;;;;;3.27;3.07;;;6.60;44.60;;;;;;5011726;28;20202;-66
2021/01/14 02:42:00;;;;;;;3.17;2.97;;;6.40;45.70;;;;;;5011730;28;20207;-67
2021/01/14 02:44:25;;;;;;;2.80;2.60;;;6.60;44.70;;;;;;5011525;28;20448;-66
2021/01/14 02:46:51;;;;;;;2.70;2.50;;;6.60;44.00;;;;;;5011684;28;20221;-66
2021/01/14 02:49:18;;;;;;;2.33;2.23;;;6.60;44.70;;;;;;5011498;28;20179;-67
2021/01/14 02:51:47;;;;;;;2.60;2.50;;;6.40;44.50;;;;;;5011793;28;20540;-66
2021/01/14 02:54:14;;;;;;;2.40;2.30;;;6.30;44.80;;;;;;5011653;28;20400;-67
2021/01/14 02:56:41;;;;;;;2.73;2.53;;;6.50;45.20;;;;;;5011577;28;20433;-66
2021/01/14 02:59:09;;;;;;;3.30;3.00;;;6.40;44.80;;;;;;5011338;28;20552;-67
2021/01/14 03:01:35;;;;;;;3.73;2.73;;;6.60;44.90;;;;;;5011641;28;20608;-66
2021/01/14 03:04:01;;;;;;;3.40;3.20;;;6.60;44.40;;;;;;5011471;28;20407;-67
2021/01/14 03:06:26;;;;;;;2.90;2.70;;;6.40;44.30;;;;;;5011423;28;20913;-67
2021/01/14 03:08:52;;;;;;;2.90;2.70;;;6.50;44.60;;;;;;5011173;28;20186;-66
2021/01/14 03:11:28;;;;;;;2.93;2.70;;;6.40;44.60;;;;;;5011212;28;20206;-67
2021/01/14 03:13:54;;;;;;;3.00;2.80;;;6.50;45.00;;;;;;5011114;28;20171;-66
2021/01/14 03:16:20;;;;;;;3.47;3.17;;;6.50;44.30;;;;;;5011179;28;20443;-67
2021/01/14 03:18:48;;;;;;;3.43;3.23;;;6.50;44.20;;;;;;5010978;28;20408;-67
2021/01/14 03:21:28;;;;;;;3.37;3.03;;;6.40;44.50;;;;;;5011257;28;20165;-67
2021/01/14 03:23:54;;;;;;;3.40;3.10;;;6.30;43.70;;;;;;5011012;28;20434;-67
2021/01/14 03:26:20;;;;;;;3.33;3.03;;;6.40;44.80;;;;;;5011233;28;20473;-67
2021/01/14 03:28:47;;;;;;;3.03;2.83;;;6.30;44.00;;;;;;5010926;28;20642;-66
2021/01/14 03:31:14;;;;;;;3.60;3.03;;;6.40;44.50;;;;;;5011129;28;20419;-66
2021/01/14 03:33:41;;;;;;;2.43;2.33;;;6.40;43.90;;;;;;5011029;28;20527;-67
2021/01/14 03:36:07;;;;;;;2.80;2.60;;;6.50;44.10;;;;;;5011067;28;20439;-67
2021/01/14 03:38:36;;;;;;;3.20;3.00;;;6.40;45.00;;;;;;5010902;28;20418;-67
2021/01/14 03:41:08;;;;;;;3.30;3.10;;;6.40;44.50;;;;;;5010927;28;20548;-66
2021/01/14 03:43:34;;;;;;;3.10;2.90;;;6.40;45.70;;;;;;5010977;28;20435;-67
2021/01/14 03:45:59;;;;;;;3.33;3.03;;;6.30;45.20;;;;;;5010863;28;20463;-67
2021/01/14 03:48:25;;;;;;;3.00;2.80;;;6.20;45.90;;;;;;5010865;28;20224;-67
2021/01/14 03:50:50;;;;;;;4.50;4.10;;;6.20;46.10;;;;;;5010935;28;20225;-66
2021/01/14 03:53:16;;;;;;;3.37;3.17;;;6.20;46.50;;;;;;5011051;28;20543;-66
2021/01/14 03:55:41;;;;;;;3.10;2.90;;;6.10;46.60;;;;;;5010893;28;20690;-66
2021/01/14 03:58:07;;;;;;;3.00;2.80;;;6.20;47.10;;;;;;5010750;28;20188;-66
2021/01/14 04:00:32;;;;;;;2.63;2.40;;;6.30;46.30;;;;;;5010856;28;20211;-66
2021/01/14 04:02:58;;;;;;;3.27;2.97;;;6.10;45.60;;;;;;5010978;28;20175;-67
2021/01/14 04:05:23;;;;;;;3.00;2.80;;;5.90;46.50;;;;;;5010781;28;20553;-67
2021/01/14 04:07:49;;;;;;;3.30;3.00;;;5.90;47.20;;;;;;5010666;28;20234;-66
2021/01/14 04:10:14;;;;;;;3.83;3.53;;;5.90;47.50;;;;;;5010918;28;20174;-66
2021/01/14 04:12:40;;;;;;;3.67;3.10;;;5.90;47.30;;;;;;5010969;28;20184;-66
2021/01/14 04:15:06;;;;;;;3.20;3.00;;;5.80;47.40;;;;;;5010807;28;20283;-65
2021/01/14 04:17:31;;;;;;;3.10;2.90;;;5.80;48.90;;;;;;5010687;28;20262;-66
2021/01/14 04:19:57;;;;;;;3.63;3.33;;;5.80;47.50;;;;;;5010524;28;20548;-66
2021/01/14 04:22:22;;;;;;;3.20;3.00;;;5.80;48.00;;;;;;5010828;28;20177;-65
2021/01/14 04:24:48;;;;;;;3.07;2.87;;;6.00;47.70;;;;;;5010634;28;20210;-65
2021/01/14 04:27:14;;;;;;;3.37;3.13;;;5.90;47.80;;;;;;5013982;28;20183;-65
2021/01/14 04:29:39;;;;;;;3.67;3.37;;;5.90;48.70;;;;;;5014195;28;20185;-66
2021/01/14 04:32:05;;;;;;;3.37;3.10;;;6.00;47.60;;;;;;5014175;28;20261;-66
2021/01/14 04:34:30;;;;;;;4.73;3.90;;;5.90;48.00;;;;;;5014025;28;20200;-66
2021/01/14 04:37:00;;;;;;;6.27;3.50;;;6.10;48.50;;;;;;5014078;28;20210;-65
2021/01/14 04:39:26;;;;;;;6.53;3.27;;;6.20;47.20;;;;;;5013903;28;20204;-66
2021/01/14 04:41:57;;;;;;;3.50;3.20;;;6.40;46.40;;;;;;5013942;28;20768;-66
2021/01/14 04:44:26;;;;;;;3.10;2.90;;;6.30;46.60;;;;;;5013905;28;20443;-66
2021/01/14 04:47:11;;;;;;;4.50;3.40;;;6.40;47.10;;;;;;5013889;28;20503;-66
2021/01/14 04:49:37;;;;;;;3.13;2.83;;;6.30;46.50;;;;;;5013808;28;20419;-66
2021/01/14 04:52:04;;;;;;;3.60;3.30;;;6.30;46.60;;;;;;5013734;28;20459;-66
2021/01/14 04:54:36;;;;;;;4.07;3.67;;;6.30;46.60;;;;;;5013552;28;20937;-66
2021/01/14 04:57:18;;;;;;;3.60;3.30;;;6.50;46.90;;;;;;5013552;28;20456;-66
2021/01/14 04:59:47;;;;;;;3.47;3.17;;;6.30;46.20;;;;;;5013617;28;20463;-66
2021/01/14 05:02:20;;;;;;;3.70;3.50;;;6.30;46.80;;;;;;5013674;28;20417;-66
2021/01/14 05:04:49;;;;;;;3.87;3.60;;;6.10;47.70;;;;;;5013538;28;20430;-66
2021/01/14 05:07:20;;;;;;;3.80;3.47;;;6.00;49.10;;;;;;5013319;28;20788;-67
2021/01/14 05:09:46;;;;;;;4.30;4.00;;;5.90;47.70;;;;;;5013461;28;20568;-66
2021/01/14 05:12:18;;;;;;;3.60;3.30;;;6.10;47.90;;;;;;5013261;28;20972;-66
2021/01/14 05:14:44;;;;;;;6.93;3.67;;;5.90;48.30;;;;;;5013309;28;20521;-66
2021/01/14 05:17:10;;;;;;;4.17;3.83;;;5.80;48.90;;;;;;5013189;28;20888;-66
2021/01/14 05:19:36;;;;;;;5.20;3.47;;;5.80;50.20;;;;;;5013241;28;20467;-66
2021/01/14 05:22:06;;;;;;;3.60;3.37;;;6.10;48.40;;;;;;5013298;28;20492;-67
2021/01/14 05:24:32;;;;;;;5.63;4.27;;;5.90;47.20;;;;;;5012970;28;20272;-66
2021/01/14 05:26:57;;;;;;;4.80;4.40;;;6.00;49.50;;;;;;5013142;28;20416;-67
2021/01/14 05:29:23;;;;;;;5.00;4.60;;;6.00;48.20;;;;;;5012936;28;20186;-66
2021/01/14 05:31:49;;;;;;;4.27;3.97;;;6.10;47.50;;;;;;5012957;28;20194;-66
2021/01/14 05:34:15;;;;;;;3.50;3.30;;;6.10;48.10;;;;;;5013061;28;20182;-67
2021/01/14 05:37:03;;;;;;;3.70;3.40;;;6.20;46.90;;;;;;5012787;28;20450;-66
2021/01/14 05:39:30;;;;;;;3.70;3.40;;;6.10;47.40;;;;;;5012812;28;20217;-67
2021/01/14 05:41:56;;;;;;;4.30;3.90;;;6.10;47.60;;;;;;5012971;28;20759;-68
2021/01/14 05:44:42;;;;;;;4.50;4.20;;;6.10;48.60;;;;;;5012742;28;20461;-65
2021/01/14 05:47:22;;;;;;;4.10;3.80;;;6.10;47.70;;;;;;5012651;28;20453;-66
2021/01/14 05:50:07;;;;;;;3.93;3.63;;;6.30;47.70;;;;;;5012820;28;20490;-68
2021/01/14 05:52:33;;;;;;;4.17;3.87;;;6.30;48.50;;;;;;5012867;28;20426;-67
2021/01/14 05:55:07;;;;;;;3.90;3.60;;;6.10;47.20;;;;;;5012719;28;20445;-67
2021/01/14 05:57:35;;;;;;;4.10;3.80;;;5.80;48.40;;;;;;5012936;28;21219;-67
2021/01/14 06:00:08;;;;;;;3.73;3.50;;;5.80;47.80;;;;;;5012840;28;20457;-67
2021/01/14 06:02:34;;;;;;;4.17;3.90;;;5.90;49.50;;;;;;5012861;28;20879;-67
2021/01/14 06:05:00;;;;;;;4.73;4.00;;;6.30;48.70;;;;;;5012533;28;20432;-67
2021/01/14 06:07:57;;;;;;;5.27;4.33;;;6.40;48.60;;;;;;5012556;28;20175;-67
2021/01/14 06:10:30;;;;;;;4.70;4.37;;;6.20;46.80;;;;;;5004266;28;20199;-67
2021/01/14 06:12:55;;;;;;;7.30;6.60;;;6.20;47.60;;;;;;5012215;28;20940;-67
2021/01/14 06:15:21;;;;;;;6.83;6.13;;;6.10;47.60;;;;;;5012229;28;20515;-67
2021/01/14 06:17:49;;;;;;;3.80;3.60;;;6.40;47.80;;;;;;5012197;28;20262;-67
2021/01/14 06:20:15;;;;;;;4.20;3.90;;;6.10;46.40;;;;;;5012305;28;20198;-67
2021/01/14 06:22:44;;;;;;;4.57;4.27;;;5.90;47.20;;;;;;5012299;28;20422;-67
2021/01/14 06:25:10;;;;;;;4.97;4.67;;;6.10;47.30;;;;;;5011730;28;20218;-67
2021/01/14 06:27:35;;;;;;;4.40;4.10;;;6.20;46.30;;;;;;5011880;28;20435;-67
2021/01/14 06:30:09;;;;;;;4.87;4.57;;;6.20;46.00;;;;;;5012029;28;20851;-67
2021/01/14 06:32:37;;;;;;;4.97;4.50;;;6.10;46.70;;;;;;5012171;28;20243;-67
2021/01/14 06:35:07;;;;;;;4.53;4.13;;;6.00;46.70;;;;;;5011841;28;20440;-67
2021/01/14 06:37:39;;;;;;;4.97;4.57;;;6.00;46.80;;;;;;5011681;28;20417;-67
2021/01/14 06:40:06;;;;;;;4.97;4.57;;;6.10;47.50;;;;;;5011565;28;20492;-67
2021/01/14 06:42:33;;;;;;;5.00;4.60;;;6.10;47.30;;;;;;5011775;28;20485;-67
2021/01/14 06:45:03;;;;;;;4.57;4.17;;;6.40;47.00;;;;;;5011535;28;20437;-67
2021/01/14 06:47:39;;;;;;;4.47;4.10;;;6.20;46.20;;;;;;5011349;28;20410;-67
2021/01/14 06:50:20;;;;;;;4.30;4.00;;;6.10;46.20;;;;;;5011455;28;20905;-68
2021/01/14 06:53:02;;;;;;;4.80;4.40;;;6.30;46.50;;;;;;5011405;28;20910;-67
2021/01/14 06:55:30;;;;;;;4.10;3.80;;;6.40;46.20;;;;;;5011429;28;20955;-67
2021/01/14 06:58:09;;;;;;;5.07;4.57;;;6.30;46.00;;;;;;5011303;28;20419;-67
2021/01/14 07:00:38;;;;;;;4.27;4.07;;;6.20;45.70;;;;;;5011033;28;20923;-66
2021/01/14 07:03:19;;;;;;;4.90;4.40;;;6.10;46.60;;;;;;5011438;28;20422;-68
2021/01/14 07:05:53;;;;;;;4.60;4.30;;;6.20;47.60;;;;;;5011223;28;20434;-68
2021/01/14 07:08:38;;;;;;;8.70;5.07;;;8.30;72.60;;;;;;5011143;28;20409;-68
2021/01/14 07:11:07;;;;;;;4.43;3.97;;;7.80;47.50;;;;;;5011145;28;20936;-69
2021/01/14 07:13:36;;;;;;;5.20;4.33;;;7.40;47.30;;;;;;5011228;28;20885;-68
2021/01/14 07:16:02;;;;;;;4.53;4.13;;;8.50;55.30;;;;;;5011158;28;20431;-69
2021/01/14 07:18:30;;;;;;;5.10;4.70;;;7.70;40.70;;;;;;5010916;28;20419;-69
2021/01/14 07:21:00;;;;;;;4.60;4.13;;;7.40;45.20;;;;;;5010664;28;20483;-67
2021/01/14 07:23:28;;;;;;;4.40;4.07;;;7.40;44.40;;;;;;5011110;28;20903;-67
2021/01/14 07:25:55;;;;;;;4.77;4.37;;;7.70;40.20;;;;;;5011013;28;20428;-69
2021/01/14 07:28:21;;;;;;;5.00;4.70;;;7.10;41.10;;;;;;5011101;28;20980;-67
2021/01/14 07:30:47;;;;;;;5.23;4.83;;;6.70;43.40;;;;;;5010690;28;20454;-67
2021/01/14 07:33:12;;;;;;;4.70;4.40;;;6.70;43.60;;;;;;5011020;28;20226;-67
2021/01/14 07:35:44;;;;;;;5.60;5.20;;;6.80;43.80;;;;;;5010979;28;20209;-67
2021/01/14 07:38:15;;;;;;;4.97;4.67;;;6.90;43.30;;;;;;5011048;28;20268;-67
2021/01/14 07:40:42;;;;;;;4.67;4.20;;;6.70;43.50;;;;;;5011081;28;20463;-67
2021/01/14 07:43:14;;;;;;;4.13;3.93;;;6.50;43.70;;;;;;5011098;28;20461;-67
2021/01/14 07:45:41;;;;;;;5.97;5.37;;;6.40;43.60;;;;;;5011021;28;20428;-71
2021/01/14 07:48:18;;;;;;;4.53;4.10;;;6.20;45.00;;;;;;5009288;28;20433;-68
2021/01/14 07:50:57;;;;;;;9.67;5.20;;;6.20;45.10;;;;;;5014192;28;20416;-69
2021/01/14 07:53:24;;;;;;;7.60;4.60;;;5.90;45.00;;;;;;5010829;28;20419;-69
2021/01/14 07:55:49;;;;;;;5.73;5.20;;;6.00;47.50;;;;;;5010307;28;21117;-66
2021/01/14 07:58:21;;;;;;;4.83;4.50;;;6.20;45.90;;;;;;5010594;28;20459;-67
2021/01/14 08:01:10;;;;;;;4.73;4.40;;;6.50;44.90;;;;;;5011874;28;20195;-65
2021/01/14 08:03:39;;;;;;;5.70;5.17;;;6.20;44.30;;;;;;5014670;28;20863;-66
2021/01/14 08:06:34;;;;;;;4.87;4.50;;;6.00;45.10;;;;;;5014216;28;20489;-66
2021/01/14 08:09:05;;;;;;;4.97;4.57;;;6.10;44.30;;;;;;5014327;28;20397;-65
2021/01/14 08:11:54;;;;;;;5.20;4.80;;;5.80;45.70;;;;;;5014263;28;20408;-66
2021/01/14 08:14:34;;;;;;;6.00;5.50;;;5.80;46.20;;;;;;5014189;28;20431;-65
2021/01/14 08:17:00;;;;;;;5.97;5.47;;;5.50;46.00;;;;;;5014311;28;21138;-67
2021/01/14 08:19:30;;;;;;;6.30;5.70;;;5.70;46.70;;;;;;5013808;28;20506;-65
2021/01/14 08:21:59;;;;;;;4.70;4.30;;;5.90;46.10;;;;;;5013989;28;20425;-65
2021/01/14 08:24:38;;;;;;;4.63;4.33;;;6.10;45.10;;;;;;5013667;28;20436;-66
2021/01/14 08:27:06;;;;;;;5.20;4.80;;;6.40;44.20;;;;;;5013741;28;20493;-64
2021/01/14 08:29:44;;;;;;;7.60;4.70;;;6.10;44.10;;;;;;5013953;28;20795;-65
2021/01/14 08:32:30;;;;;;;5.77;5.20;;;5.70;44.80;;;;;;5013859;28;20413;-66
2021/01/14 08:34:57;;;;;;;5.27;4.47;;;5.60;44.80;;;;;;5014297;28;20433;-66
2021/01/14 08:37:44;;;;;;;5.53;5.13;;;5.90;45.60;;;;;;5013976;28;20560;-67
2021/01/14 08:40:17;;;;;;;5.90;5.50;;;5.90;42.80;;;;;;5013961;28;20456;-65
2021/01/14 08:42:45;;;;;;;6.93;5.30;;;6.00;43.80;;;;;;5013592;28;20408;-66
2021/01/14 08:45:15;;;;;;;5.90;5.40;;;6.20;43.80;;;;;;5013398;28;20508;-68
2021/01/14 08:48:01;;;;;;;9.70;5.50;;;6.20;43.60;;;;;;5013083;28;20434;-67
2021/01/14 08:50:32;;;;;;;7.20;5.73;;;6.10;43.70;;;;;;5013869;28;20191;-66
2021/01/14 08:53:00;;;;;;;7.00;6.30;;;6.00;43.70;;;;;;5013628;28;20414;-66
2021/01/14 08:55:28;;;;;;;5.10;4.70;;;6.20;44.70;;;;;;5012656;28;20466;-65
2021/01/14 08:57:55;;;;;;;6.40;5.87;;;6.30;43.40;;;;;;5012418;28;20423;-66
2021/01/14 09:00:21;;;;;;;6.13;5.73;;;6.40;43.50;;;;;;5013517;28;20590;-66
2021/01/14 09:02:47;;;;;;;6.17;5.70;;;6.50;42.80;;;;;;5013434;28;20494;-66
2021/01/14 09:05:13;;;;;;;6.40;5.80;;;6.60;42.70;;;;;;5013214;28;20216;-66
2021/01/14 09:07:39;;;;;;;6.40;5.80;;;6.50;42.30;;;;;;5012956;28;20418;-66
2021/01/14 09:10:08;;;;;;;6.40;5.83;;;6.50;42.60;;;;;;5013376;28;20784;-64
2021/01/14 09:12:35;;;;;;;6.20;5.70;;;6.50;43.10;;;;;;5012851;28;20415;-65
2021/01/14 09:15:02;;;;;;;6.63;6.13;;;6.20;42.70;;;;;;5013270;28;20442;-67
2021/01/14 09:17:27;;;;;;;7.70;7.07;;;6.00;43.90;;;;;;5013094;28;20921;-65
2021/01/14 09:19:54;;;;;;;7.37;6.10;;;5.90;44.80;;;;;;5012743;28;20465;-65
2021/01/14 09:22:26;;;;;;;7.73;5.80;;;6.10;45.30;;;;;;5012947;28;20182;-68
2021/01/14 09:24:52;;;;;;;5.97;5.30;;;6.10;44.10;;;;;;5013288;28;20816;-65
2021/01/14 09:27:18;;;;;;;6.23;5.73;;;5.90;44.20;;;;;;5012756;28;20415;-66
2021/01/14 09:29:44;;;;;;;5.90;5.50;;;6.10;43.10;;;;;;5012958;28;20514;-67
2021/01/14 09:32:13;;;;;;;6.10;5.60;;;6.20;44.00;;;;;;5013168;28;20191;-65
2021/01/14 09:34:39;;;;;;;6.53;5.90;;;6.00;43.80;;;;;;5013028;28;20181;-66
2021/01/14 09:37:20;;;;;;;6.80;6.13;;;6.10;44.70;;;;;;5013164;28;20411;-66
2021/01/14 09:39:46;;;;;;;6.53;6.03;;;6.40;44.60;;;;;;5012894;28;20675;-66
2021/01/14 09:42:12;;;;;;;6.57;5.60;;;6.30;43.30;;;;;;5012951;28;20414;-66
2021/01/14 09:44:38;;;;;;;6.57;5.43;;;6.50;43.70;;;;;;5012761;28;20581;-66
2021/01/14 09:47:04;;;;;;;7.00;6.40;;;6.40;43.50;;;;;;5012401;28;20411;-66
2021/01/14 09:49:30;;;;;;;6.13;5.63;;;6.40;43.50;;;;;;5012390;28;20256;-66
2021/01/14 09:51:55;;;;;;;8.30;6.80;;;6.60;42.80;;;;;;5012581;28;20208;-64
2021/01/14 09:54:23;;;;;;;6.63;6.03;;;6.40;42.30;;;;;;5012369;28;20419;-67
2021/01/14 09:56:56;;;;;;;7.83;5.73;;;6.40;43.70;;;;;;5012450;28;20194;-67
2021/01/14 09:59:31;;;;;;;6.60;5.63;;;6.60;41.80;;;;;;5012233;28;20907;-66
2021/01/14 10:02:09;;;;;;;5.93;5.40;;;6.70;42.50;;;;;;5012488;28;20399;-66
2021/01/14 10:04:40;;;;;;;8.87;7.10;;;6.70;41.10;;;;;;5012204;28;20514;-67
2021/01/14 10:07:11;;;;;;;8.07;6.33;;;6.60;40.60;;;;;;5012127;28;20443;-66
2021/01/14 10:09:37;;;;;;;8.00;6.17;;;6.40;41.40;;;;;;5012262;28;20502;-65
2021/01/14 10:12:07;;;;;;;7.20;4.90;;;6.10;43.00;;;;;;5011928;28;20425;-64
2021/01/14 10:14:33;;;;;;;5.70;5.20;;;5.90;43.60;;;;;;5011955;28;20556;-66
2021/01/14 10:17:09;;;;;;;6.90;6.00;;;6.20;41.50;;;;;;5011758;28;20509;-67
2021/01/14 10:19:40;;;;;;;5.37;5.07;;;6.10;41.30;;;;;;5011833;28;20204;-64
2021/01/14 10:22:07;;;;;;;6.60;5.00;;;6.10;41.90;;;;;;5011680;28;20440;-68
2021/01/14 10:24:33;;;;;;;5.03;4.63;;;6.50;40.90;;;;;;5011190;28;20438;-67
2021/01/14 10:27:19;;;;;;;4.70;4.40;;;6.50;39.70;;;;;;5011867;28;20415;-67
2021/01/14 10:29:46;;;;;;;4.80;4.50;;;6.60;39.80;;;;;;5012034;28;20401;-66
2021/01/14 10:32:13;;;;;;;5.27;4.87;;;6.70;39.40;;;;;;5012036;28;20425;-68
2021/01/14 10:34:50;;;;;;;5.40;4.90;;;6.60;39.40;;;;;;5011612;28;20414;-67
2021/01/14 10:37:31;;;;;;;11.70;5.27;;;6.70;39.60;;;;;;5011325;28;20453;-65
2021/01/14 10:39:59;;;;;;;5.90;5.40;;;6.70;39.00;;;;;;5011779;28;20480;-69
2021/01/14 10:42:36;;;;;;;6.47;5.97;;;6.60;39.70;;;;;;5011603;28;20458;-64
2021/01/14 10:45:11;;;;;;;5.83;5.27;;;6.30;40.50;;;;;;5011581;28;20436;-64
2021/01/14 10:47:39;;;;;;;6.17;4.67;;;6.40;40.90;;;;;;5011286;28;20453;-65
2021/01/14 10:50:21;;;;;;;5.90;5.40;;;6.50;40.40;;;;;;5011632;28;20428;-66
2021/01/14 10:53:03;;;;;;;7.37;5.43;;;6.40;39.70;;;;;;5011595;28;20410;-66
2021/01/14 10:55:30;;;;;;;6.27;5.20;;;6.40;40.30;;;;;;5011164;28;20438;-65
2021/01/14 10:57:57;;;;;;;7.23;5.63;;;6.50;40.50;;;;;;5011484;28;20509;-67
2021/01/14 11:00:27;;;;;;;6.43;5.00;;;6.40;40.40;;;;;;5011025;28;20890;-65
2021/01/14 11:03:25;;;;;;;5.53;5.13;;;6.30;39.60;;;;;;5011210;28;20897;-67
2021/01/14 11:05:55;;;;;;;5.07;4.67;;;6.50;39.70;;;;;;5010843;28;20766;-67
2021/01/14 11:08:24;;;;;;;8.20;5.87;;;6.50;39.60;;;;;;5010795;28;20492;-67
2021/01/14 11:11:07;;;;;;;5.90;5.40;;;6.60;40.50;;;;;;5011122;28;20446;-66
2021/01/14 11:13:48;;;;;;;5.60;5.13;;;6.70;39.70;;;;;;5011064;28;20422;-67
2021/01/14 11:16:15;;;;;;;7.83;5.00;;;6.80;39.60;;;;;;5011059;28;20423;-67
2021/01/14 11:18:46;;;;;;;6.10;5.53;;;6.80;39.10;;;;;;5010750;28;20501;-67
2021/01/14 11:21:14;;;;;;;5.33;4.93;;;6.70;39.90;;;;;;5011077;28;20455;-68
2021/01/14 11:23:40;;;;;;;5.80;5.30;;;6.50;39.70;;;;;;5010884;28;20967;-68
2021/01/14 11:26:07;;;;;;;8.47;6.53;;;6.60;39.80;;;;;;5011143;28;20451;-66
2021/01/14 11:28:41;;;;;;;7.80;5.50;;;6.60;38.80;;;;;;5010905;28;20771;-67
2021/01/14 11:31:16;;;;;;;6.30;5.80;;;6.70;38.60;;;;;;5011049;28;20811;-67
2021/01/14 11:33:42;;;;;;;6.70;6.00;;;6.70;38.60;;;;;;5011119;28;20425;-65
2021/01/14 11:36:13;;;;;;;5.97;5.37;;;6.60;39.10;;;;;;5015471;28;20526;-67
2021/01/14 11:38:38;;;;;;;6.17;5.67;;;6.60;39.40;;;;;;5015308;28;20425;-67
2021/01/14 11:41:04;;;;;;;5.97;5.47;;;6.60;39.80;;;;;;5015288;28;20459;-67
2021/01/14 11:43:31;;;;;;;6.03;5.60;;;6.50;38.30;;;;;;5014826;28;20202;-70
2021/01/14 11:45:57;;;;;;;6.67;5.97;;;6.40;39.20;;;;;;5014743;28;20281;-68
2021/01/14 11:48:22;;;;;;;6.43;5.93;;;6.50;38.90;;;;;;5014833;28;20430;-67
2021/01/14 11:50:48;;;;;;;6.40;5.90;;;6.50;39.70;;;;;;5014857;28;20549;-67
2021/01/14 11:53:13;;;;;;;6.57;5.57;;;6.50;40.20;;;;;;5014823;28;20620;-67
2021/01/14 11:55:39;;;;;;;6.60;6.00;;;6.30;38.50;;;;;;5014433;28;20674;-68
2021/01/14 11:58:05;;;;;;;6.33;5.50;;;6.30;38.90;;;;;;5014743;28;20180;-67
2021/01/14 12:00:30;;;;;;;6.10;5.60;;;6.40;38.10;;;;;;5014547;28;20239;-67
2021/01/14 12:02:56;;;;;;;7.33;5.53;;;6.40;38.60;;;;;;5014099;28;20175;-66
2021/01/14 12:05:21;;;;;;;4.70;4.37;;;6.30;37.40;;;;;;5014573;28;20239;-66
2021/01/14 12:07:47;;;;;;;5.53;5.03;;;6.50;36.40;;;;;;5014386;28;20284;-67
2021/01/14 12:10:13;;;;;;;6.00;5.40;;;6.40;37.70;;;;;;5014408;28;20604;-67
2021/01/14 12:12:38;;;;;;;6.77;6.17;;;6.20;38.40;;;;;;5014284;28;20195;-67
2021/01/14 12:15:05;;;;;;;5.80;5.30;;;6.30;38.70;;;;;;5014033;28;20438;-66
2021/01/14 12:17:31;;;;;;;5.47;4.93;;;6.30;37.40;;;;;;5014188;28;20181;-68
2021/01/14 12:19:57;;;;;;;6.40;4.87;;;6.50;37.00;;;;;;5004927;28;20457;-68
2021/01/14 12:22:22;;;;;;;6.40;5.33;;;6.40;36.30;;;;;;5024592;28;20425;-67
2021/01/14 12:24:48;;;;;;;7.13;6.00;;;6.30;37.10;;;;;;5033777;28;20260;-67
2021/01/14 12:27:13;;;;;;;5.70;5.20;;;6.10;38.20;;;;;;5030806;28;20187;-66
2021/01/14 12:29:39;;;;;;;11.20;5.10;;;6.30;38.40;;;;;;5014347;28;20666;-66
2021/01/14 12:32:05;;;;;;;5.80;5.30;;;6.30;37.80;;;;;;5013928;28;20656;-67
2021/01/14 12:34:32;;;;;;;6.97;5.63;;;6.30;38.20;;;;;;5014870;28;20223;-68
2021/01/14 12:36:57;;;;;;;5.70;5.20;;;6.40;37.80;;;;;;5033652;28;20427;-68
2021/01/14 12:39:24;;;;;;;5.00;4.60;;;6.20;38.30;;;;;;5033468;28;20418;-66
2021/01/14 12:41:49;;;;;;;10.97;6.43;;;6.20;38.30;;;;;;5028720;28;20184;-66
2021/01/14 12:44:15;;;;;;;5.97;5.43;;;6.30;39.50;;;;;;5013238;28;20929;-67
2021/01/14 12:46:43;;;;;;;5.30;4.90;;;6.50;37.40;;;;;;5005377;28;20200;-67
2021/01/14 12:49:09;;;;;;;6.33;5.70;;;6.50;36.50;;;;;;5010797;28;20181;-68
2021/01/14 12:51:36;;;;;;;5.90;5.10;;;6.40;37.10;;;;;;5012791;28;20465;-68
2021/01/14 12:54:02;;;;;;;5.07;4.60;;;6.30;37.00;;;;;;5012394;28;20403;-67
2021/01/14 12:56:27;;;;;;;5.60;5.20;;;6.40;37.90;;;;;;5011062;28;20438;-68
2021/01/14 12:58:53;;;;;;;6.03;5.03;;;6.60;35.60;;;;;;5010755;28;20914;-66
2021/01/14 13:01:31;;;;;;;6.30;5.80;;;6.70;35.40;;;;;;5012319;28;20202;-67
2021/01/14 13:03:58;;;;;;;5.90;4.70;;;6.70;35.90;;;;;;5012024;28;20421;-66
2021/01/14 13:06:28;;;;;;;5.43;5.03;;;6.50;36.60;;;;;;5012485;28;20561;-67
2021/01/14 13:08:55;;;;;;;6.20;5.60;;;6.40;35.70;;;;;;5012116;28;20494;-67